AEA17AZ LEMD-EDDF
Flight info
| Callsign | AEA17AZ |
|---|---|
| Flight time | 2h 21m |
| Altitude | 38000 |
| Route | RBO N867 DGO N858 ABRIX DCT CNA DCT ADABI DCT BOKNO DCT DIBES DCT VIQAQ DCT TSU UN858 OQQAL DCT RANUX/N0443F390 DCT VALEK DCT LIPNI DCT LIMGO Z111 OBIGA Z111 RAMOB RASVO1C |
| Aircraft | B38M/M-SDE1FGHILORVWXY/HB1 |
Departure
| Time | 2026-05-01 12:45 |
|---|---|
| Airport | Adolfo Suárez Madrid–Barajas Airport (LEMD) |
Arrival
| Time | 2026-05-01 15:07 |
|---|---|
| Airport | Frankfurt Main Airport (EDDF) |
| Time | Latitude | Longitude | Altitude | Speed | Heading |
|---|---|---|---|---|---|
| 2026-05-01 11:10 | 40.47346 | -3.57050 | 1992 ft | 0 kts | 229° |
| 2026-05-01 12:28 | 40.47352 | -3.57041 | 1992 ft | 3 kts | 229° |
| 2026-05-01 12:28 | 40.47364 | -3.57022 | 1992 ft | 2 kts | 229° |
| 2026-05-01 12:28 | 40.47392 | -3.57001 | 1991 ft | 3 kts | 162° |
| 2026-05-01 12:29 | 40.47408 | -3.57013 | 1993 ft | 2 kts | 142° |
| 2026-05-01 12:29 | 40.47415 | -3.57020 | 1992 ft | 1 kts | 142° |
| 2026-05-01 12:31 | 40.47414 | -3.57019 | 1992 ft | 0 kts | 151° |
| 2026-05-01 12:34 | 40.47407 | -3.57013 | 1993 ft | 5 kts | 144° |
| 2026-05-01 12:34 | 40.47371 | -3.56976 | 1992 ft | 5 kts | 142° |
| 2026-05-01 12:34 | 40.47337 | -3.56940 | 1991 ft | 2 kts | 133° |
| 2026-05-01 12:35 | 40.47327 | -3.56926 | 1990 ft | 9 kts | 130° |
| 2026-05-01 12:35 | 40.47339 | -3.56842 | 1990 ft | 9 kts | 19° |
| 2026-05-01 12:35 | 40.47382 | -3.56864 | 1991 ft | 6 kts | 325° |
| 2026-05-01 12:35 | 40.47428 | -3.56909 | 1992 ft | 14 kts | 321° |
| 2026-05-01 12:36 | 40.47532 | -3.57016 | 1995 ft | 21 kts | 322° |
| 2026-05-01 12:36 | 40.47646 | -3.57135 | 2000 ft | 20 kts | 321° |
| 2026-05-01 12:36 | 40.47758 | -3.57246 | 2003 ft | 20 kts | 321° |
| 2026-05-01 12:36 | 40.47864 | -3.57355 | 2007 ft | 19 kts | 322° |
| 2026-05-01 12:37 | 40.47973 | -3.57466 | 2005 ft | 21 kts | 322° |
| 2026-05-01 12:37 | 40.48097 | -3.57593 | 2002 ft | 22 kts | 322° |
| 2026-05-01 12:37 | 40.48225 | -3.57718 | 1998 ft | 23 kts | 329° |
| 2026-05-01 12:37 | 40.48329 | -3.57802 | 1995 ft | 12 kts | 315° |
| 2026-05-01 12:38 | 40.48399 | -3.57886 | 1994 ft | 15 kts | 322° |
| 2026-05-01 12:38 | 40.48480 | -3.57957 | 1998 ft | 12 kts | 328° |
| 2026-05-01 12:38 | 40.48547 | -3.58010 | 2002 ft | 13 kts | 328° |
| 2026-05-01 12:38 | 40.48664 | -3.58049 | 2003 ft | 23 kts | 360° |
| 2026-05-01 12:39 | 40.48803 | -3.58050 | 2005 ft | 15 kts | 0° |
| 2026-05-01 12:39 | 40.48858 | -3.57946 | 2002 ft | 18 kts | 91° |
| 2026-05-01 12:39 | 40.48859 | -3.57742 | 1995 ft | 26 kts | 87° |
| 2026-05-01 12:39 | 40.48860 | -3.57469 | 1990 ft | 34 kts | 89° |
| 2026-05-01 12:40 | 40.48861 | -3.57152 | 1984 ft | 34 kts | 92° |
| 2026-05-01 12:40 | 40.48860 | -3.56861 | 1979 ft | 32 kts | 90° |
| 2026-05-01 12:40 | 40.48861 | -3.56577 | 1973 ft | 23 kts | 90° |
| 2026-05-01 12:40 | 40.48861 | -3.56308 | 1966 ft | 34 kts | 89° |
| 2026-05-01 12:41 | 40.48991 | -3.56242 | 1964 ft | 27 kts | 355° |
| 2026-05-01 12:41 | 40.49216 | -3.56244 | 1964 ft | 37 kts | 359° |
| 2026-05-01 12:41 | 40.49509 | -3.56249 | 1964 ft | 47 kts | 1° |
| 2026-05-01 12:41 | 40.49726 | -3.56252 | 1964 ft | 31 kts | 360° |
| 2026-05-01 12:42 | 40.49918 | -3.56243 | 1968 ft | 22 kts | 24° |
| 2026-05-01 12:42 | 40.49940 | -3.56138 | 1961 ft | 7 kts | 92° |
| 2026-05-01 12:42 | 40.49940 | -3.56079 | 1960 ft | 5 kts | 87° |
| 2026-05-01 12:42 | 40.49943 | -3.56053 | 1960 ft | 0 kts | 78° |
| 2026-05-01 12:43 | 40.49943 | -3.56047 | 1960 ft | 1 kts | 78° |
| 2026-05-01 12:43 | 40.49946 | -3.56035 | 1960 ft | 2 kts | 73° |
| 2026-05-01 12:43 | 40.49950 | -3.56019 | 1965 ft | 2 kts | 68° |
| 2026-05-01 12:43 | 40.49955 | -3.56004 | 1962 ft | 2 kts | 63° |
| 2026-05-01 12:44 | 40.49973 | -3.55975 | 1962 ft | 11 kts | 47° |
| 2026-05-01 12:44 | 40.50099 | -3.55921 | 1962 ft | 27 kts | 1° |
| 2026-05-01 12:44 | 40.51118 | -3.55927 | 1959 ft | 137 kts | 359° |
| 2026-05-01 12:45 | 40.53567 | -3.55903 | 2619 ft | 192 kts | 1° |
| 2026-05-01 12:45 | 40.54872 | -3.55756 | 3501 ft | 188 kts | 16° |
| 2026-05-01 12:45 | 40.56129 | -3.55208 | 4290 ft | 191 kts | 19° |
| 2026-05-01 12:46 | 40.57393 | -3.54649 | 5037 ft | 193 kts | 18° |
| 2026-05-01 12:46 | 40.58671 | -3.54092 | 5754 ft | 194 kts | 20° |
| 2026-05-01 12:46 | 40.59841 | -3.53200 | 6335 ft | 196 kts | 39° |
| 2026-05-01 12:46 | 40.60901 | -3.52069 | 6946 ft | 198 kts | 41° |
| 2026-05-01 12:47 | 40.61977 | -3.50893 | 7408 ft | 208 kts | 41° |
| 2026-05-01 12:47 | 40.63139 | -3.49608 | 7725 ft | 229 kts | 40° |
| 2026-05-01 12:47 | 40.64424 | -3.48189 | 8022 ft | 253 kts | 40° |
| 2026-05-01 12:47 | 40.65829 | -3.46620 | 8399 ft | 274 kts | 41° |
| 2026-05-01 12:48 | 40.67331 | -3.44939 | 8833 ft | 293 kts | 40° |
| 2026-05-01 12:48 | 40.68918 | -3.43161 | 9517 ft | 301 kts | 40° |
| 2026-05-01 12:48 | 40.70518 | -3.41368 | 10307 ft | 306 kts | 40° |
| 2026-05-01 12:48 | 40.72185 | -3.39501 | 10690 ft | 325 kts | 40° |
| 2026-05-01 12:49 | 40.73946 | -3.37527 | 11168 ft | 339 kts | 40° |
| 2026-05-01 12:49 | 40.75762 | -3.35488 | 11872 ft | 343 kts | 40° |
| 2026-05-01 12:49 | 40.77587 | -3.33440 | 12689 ft | 347 kts | 40° |
| 2026-05-01 12:49 | 40.79441 | -3.31357 | 13502 ft | 352 kts | 40° |
| 2026-05-01 12:50 | 40.81311 | -3.29255 | 14284 ft | 356 kts | 40° |
| 2026-05-01 12:50 | 40.83206 | -3.27124 | 15028 ft | 359 kts | 40° |
| 2026-05-01 12:50 | 40.85255 | -3.25241 | 15789 ft | 361 kts | 23° |
| 2026-05-01 12:50 | 40.87657 | -3.24304 | 16550 ft | 362 kts | 8° |
| 2026-05-01 12:51 | 40.90158 | -3.23683 | 17261 ft | 367 kts | 8° |
| 2026-05-01 12:51 | 40.92680 | -3.23077 | 18012 ft | 370 kts | 8° |
| 2026-05-01 12:51 | 40.97806 | -3.21896 | 19281 ft | 377 kts | 7° |
| 2026-05-01 12:52 | 41.00408 | -3.21310 | 19857 ft | 381 kts | 6° |
| 2026-05-01 12:52 | 41.05693 | -3.20124 | 21009 ft | 389 kts | 7° |
| 2026-05-01 12:52 | 41.08374 | -3.19524 | 21572 ft | 393 kts | 7° |
| 2026-05-01 12:53 | 41.13829 | -3.18297 | 22683 ft | 401 kts | 7° |
| 2026-05-01 12:53 | 41.16591 | -3.17677 | 23249 ft | 404 kts | 7° |
| 2026-05-01 12:53 | 41.19373 | -3.17053 | 23791 ft | 408 kts | 7° |
| 2026-05-01 12:54 | 41.22183 | -3.16417 | 24232 ft | 411 kts | 7° |
| 2026-05-01 12:54 | 41.27851 | -3.15134 | 25160 ft | 415 kts | 7° |
| 2026-05-01 12:54 | 41.30716 | -3.14489 | 25613 ft | 418 kts | 7° |
| 2026-05-01 12:55 | 41.36436 | -3.13192 | 26506 ft | 422 kts | 7° |
| 2026-05-01 12:55 | 41.39337 | -3.12533 | 26948 ft | 425 kts | 7° |
| 2026-05-01 12:55 | 41.42262 | -3.11868 | 27381 ft | 427 kts | 7° |
| 2026-05-01 12:56 | 41.45196 | -3.11202 | 27808 ft | 429 kts | 7° |
| 2026-05-01 12:56 | 41.48147 | -3.10531 | 28225 ft | 431 kts | 6° |
| 2026-05-01 12:56 | 41.51117 | -3.09856 | 28638 ft | 434 kts | 7° |
| 2026-05-01 12:56 | 41.54096 | -3.09175 | 29037 ft | 436 kts | 6° |
| 2026-05-01 12:57 | 41.57092 | -3.08494 | 29443 ft | 438 kts | 7° |
| 2026-05-01 12:57 | 41.63131 | -3.07115 | 30203 ft | 442 kts | 6° |
| 2026-05-01 12:57 | 41.66169 | -3.06418 | 30529 ft | 444 kts | 6° |
| 2026-05-01 12:58 | 41.69227 | -3.05724 | 30843 ft | 446 kts | 7° |
| 2026-05-01 12:58 | 41.72292 | -3.05020 | 31166 ft | 448 kts | 7° |
| 2026-05-01 12:58 | 41.75363 | -3.04312 | 31466 ft | 450 kts | 7° |
| 2026-05-01 12:59 | 41.81562 | -3.02895 | 32092 ft | 453 kts | 7° |
| 2026-05-01 12:59 | 41.84678 | -3.02175 | 32396 ft | 455 kts | 6° |
| 2026-05-01 12:59 | 41.90952 | -3.00734 | 33011 ft | 459 kts | 7° |
| 2026-05-01 13:00 | 41.97247 | -2.99276 | 33749 ft | 459 kts | 7° |
| 2026-05-01 13:00 | 42.00392 | -2.98551 | 34164 ft | 457 kts | 6° |
| 2026-05-01 13:01 | 42.06651 | -2.97108 | 34873 ft | 456 kts | 6° |
| 2026-05-01 13:01 | 42.09774 | -2.96380 | 35196 ft | 455 kts | 7° |
| 2026-05-01 13:01 | 42.15966 | -2.94941 | 35792 ft | 455 kts | 7° |
| 2026-05-01 13:02 | 42.19084 | -2.94213 | 36113 ft | 454 kts | 7° |
| 2026-05-01 13:07 | 42.79186 | -2.62439 | 38152 ft | 455 kts | 26° |
| 2026-05-01 13:07 | 42.81949 | -2.60332 | 38155 ft | 455 kts | 26° |
| 2026-05-01 13:08 | 42.87464 | -2.56121 | 38155 ft | 455 kts | 26° |
| 2026-05-01 13:08 | 42.92992 | -2.51891 | 38148 ft | 455 kts | 26° |
| 2026-05-01 13:09 | 42.98501 | -2.47668 | 38138 ft | 455 kts | 26° |
| 2026-05-01 13:09 | 43.04017 | -2.43427 | 38123 ft | 454 kts | 27° |
| 2026-05-01 13:10 | 43.09537 | -2.39180 | 38130 ft | 455 kts | 26° |
| 2026-05-01 13:10 | 43.15052 | -2.34928 | 38109 ft | 455 kts | 27° |
| 2026-05-01 13:11 | 43.20568 | -2.30659 | 38129 ft | 455 kts | 27° |
| 2026-05-01 13:11 | 43.26085 | -2.26384 | 38123 ft | 455 kts | 27° |
| 2026-05-01 13:12 | 43.31598 | -2.22103 | 38122 ft | 456 kts | 27° |
| 2026-05-01 13:12 | 43.37078 | -2.17839 | 38126 ft | 456 kts | 27° |
| 2026-05-01 13:13 | 43.42604 | -2.13532 | 38126 ft | 456 kts | 27° |
| 2026-05-01 13:13 | 43.48123 | -2.09219 | 38133 ft | 456 kts | 27° |
| 2026-05-01 13:14 | 43.53646 | -2.04894 | 38131 ft | 457 kts | 27° |
| 2026-05-01 13:14 | 43.59167 | -2.00564 | 38131 ft | 457 kts | 27° |
| 2026-05-01 13:15 | 43.64708 | -1.96208 | 38138 ft | 458 kts | 27° |
| 2026-05-01 13:15 | 43.70230 | -1.91850 | 38140 ft | 458 kts | 27° |
| 2026-05-01 13:16 | 43.75762 | -1.87479 | 38146 ft | 458 kts | 28° |
| 2026-05-01 13:16 | 43.81307 | -1.83088 | 38150 ft | 459 kts | 28° |
| 2026-05-01 13:17 | 43.92376 | -1.74294 | 38157 ft | 459 kts | 28° |
| 2026-05-01 13:18 | 44.00661 | -1.67687 | 38163 ft | 460 kts | 28° |
| 2026-05-01 13:18 | 44.06205 | -1.63254 | 38164 ft | 459 kts | 28° |
| 2026-05-01 13:19 | 44.11746 | -1.58814 | 38162 ft | 460 kts | 28° |
| 2026-05-01 13:20 | 44.20058 | -1.52134 | 38162 ft | 460 kts | 28° |
| 2026-05-01 13:20 | 44.25599 | -1.47670 | 38165 ft | 460 kts | 28° |
| 2026-05-01 13:21 | 44.33905 | -1.40957 | 38158 ft | 460 kts | 28° |
| 2026-05-01 13:21 | 44.39437 | -1.36474 | 38156 ft | 460 kts | 28° |
| 2026-05-01 13:22 | 44.44977 | -1.31976 | 38158 ft | 460 kts | 29° |
| 2026-05-01 13:22 | 44.50512 | -1.27471 | 38157 ft | 460 kts | 29° |
| 2026-05-01 13:23 | 44.56058 | -1.22948 | 38161 ft | 461 kts | 29° |
| 2026-05-01 13:23 | 44.61597 | -1.18420 | 38157 ft | 461 kts | 29° |
| 2026-05-01 13:24 | 44.67141 | -1.13878 | 38157 ft | 461 kts | 29° |
| 2026-05-01 13:25 | 44.75438 | -1.07061 | 38163 ft | 461 kts | 29° |
| 2026-05-01 13:25 | 44.80952 | -1.02519 | 38177 ft | 461 kts | 29° |
| 2026-05-01 13:26 | 44.86487 | -0.97948 | 38179 ft | 461 kts | 29° |
| 2026-05-01 13:26 | 44.92024 | -0.93365 | 38175 ft | 461 kts | 29° |
| 2026-05-01 13:27 | 44.97528 | -0.88800 | 38176 ft | 462 kts | 29° |
| 2026-05-01 13:27 | 45.05836 | -0.81890 | 38176 ft | 462 kts | 30° |
| 2026-05-01 13:28 | 45.14142 | -0.74958 | 38174 ft | 462 kts | 30° |
| 2026-05-01 13:29 | 45.25212 | -0.65681 | 38175 ft | 462 kts | 30° |
| 2026-05-01 13:31 | 45.41787 | -0.51711 | 38183 ft | 463 kts | 30° |
| 2026-05-01 13:32 | 45.55638 | -0.39968 | 38186 ft | 463 kts | 30° |
| 2026-05-01 13:33 | 45.69388 | -0.27948 | 38192 ft | 464 kts | 32° |
| 2026-05-01 13:34 | 45.80247 | -0.17957 | 38188 ft | 464 kts | 32° |
| 2026-05-01 13:35 | 45.88357 | -0.10475 | 38190 ft | 464 kts | 32° |
| 2026-05-01 13:36 | 45.96500 | -0.02937 | 38198 ft | 464 kts | 32° |
| 2026-05-01 13:36 | 46.04653 | 0.04637 | 38194 ft | 464 kts | 32° |
| 2026-05-01 13:37 | 46.10081 | 0.09696 | 38194 ft | 465 kts | 32° |
| 2026-05-01 13:37 | 46.15501 | 0.14758 | 38193 ft | 465 kts | 32° |
| 2026-05-01 13:38 | 46.23634 | 0.22376 | 38191 ft | 465 kts | 32° |
| 2026-05-01 13:39 | 46.29058 | 0.27473 | 38200 ft | 465 kts | 32° |
| 2026-05-01 13:39 | 46.34473 | 0.32572 | 38202 ft | 465 kts | 32° |
| 2026-05-01 13:40 | 46.39890 | 0.37688 | 38204 ft | 465 kts | 32° |
| 2026-05-01 13:40 | 46.45302 | 0.42810 | 38210 ft | 465 kts | 32° |
| 2026-05-01 13:41 | 46.50717 | 0.47944 | 38212 ft | 465 kts | 31° |
| 2026-05-01 13:41 | 46.56233 | 0.52697 | 38195 ft | 460 kts | 17° |
| 2026-05-01 13:42 | 46.62410 | 0.55032 | 38208 ft | 460 kts | 11° |
| 2026-05-01 13:42 | 46.68638 | 0.57180 | 38205 ft | 460 kts | 10° |
| 2026-05-01 13:43 | 46.74875 | 0.59255 | 38198 ft | 460 kts | 10° |
| 2026-05-01 13:43 | 46.81119 | 0.61321 | 38198 ft | 460 kts | 10° |
| 2026-05-01 13:44 | 46.87358 | 0.63389 | 38193 ft | 460 kts | 10° |
| 2026-05-01 13:44 | 46.93594 | 0.65462 | 38192 ft | 460 kts | 10° |
| 2026-05-01 13:45 | 46.99836 | 0.67541 | 38199 ft | 460 kts | 10° |
| 2026-05-01 13:45 | 47.05927 | 0.70333 | 38179 ft | 462 kts | 28° |
| 2026-05-01 13:46 | 47.11424 | 0.75163 | 38186 ft | 465 kts | 28° |
| 2026-05-01 13:46 | 47.16958 | 0.80077 | 38197 ft | 465 kts | 29° |
| 2026-05-01 13:47 | 47.22485 | 0.85017 | 38208 ft | 465 kts | 29° |
| 2026-05-01 13:47 | 47.28010 | 0.89966 | 38209 ft | 464 kts | 29° |
| 2026-05-01 13:48 | 47.33528 | 0.94922 | 38209 ft | 464 kts | 29° |
| 2026-05-01 13:48 | 47.39039 | 0.99884 | 38212 ft | 464 kts | 29° |
| 2026-05-01 13:49 | 47.44554 | 1.04861 | 38214 ft | 464 kts | 30° |
| 2026-05-01 13:49 | 47.50066 | 1.09833 | 38208 ft | 463 kts | 27° |
| 2026-05-01 13:50 | 47.55776 | 1.14210 | 38199 ft | 463 kts | 26° |
| 2026-05-01 13:50 | 47.61483 | 1.18673 | 38197 ft | 463 kts | 26° |
| 2026-05-01 13:51 | 47.67172 | 1.23139 | 38194 ft | 463 kts | 26° |
| 2026-05-01 13:51 | 47.72825 | 1.27585 | 38197 ft | 463 kts | 26° |
| 2026-05-01 13:52 | 47.78509 | 1.32069 | 38196 ft | 463 kts | 27° |
| 2026-05-01 13:52 | 47.84199 | 1.36569 | 38195 ft | 463 kts | 27° |
| 2026-05-01 13:53 | 47.89888 | 1.41078 | 38195 ft | 463 kts | 27° |
| 2026-05-01 13:53 | 47.98411 | 1.47856 | 38193 ft | 463 kts | 27° |
| 2026-05-01 13:54 | 48.04094 | 1.52390 | 38189 ft | 463 kts | 27° |
| 2026-05-01 13:54 | 48.09773 | 1.56931 | 38192 ft | 463 kts | 27° |
| 2026-05-01 13:55 | 48.15457 | 1.61488 | 38190 ft | 463 kts | 27° |
| 2026-05-01 13:55 | 48.20176 | 1.65281 | 38193 ft | 463 kts | 28° |
| 2026-05-01 13:56 | 48.25849 | 1.69850 | 38200 ft | 463 kts | 28° |
| 2026-05-01 13:56 | 48.31527 | 1.74435 | 38201 ft | 463 kts | 28° |
| 2026-05-01 13:57 | 48.37201 | 1.79028 | 38204 ft | 463 kts | 28° |
| 2026-05-01 13:57 | 48.42873 | 1.83633 | 38203 ft | 463 kts | 28° |
| 2026-05-01 13:58 | 48.48538 | 1.88242 | 38205 ft | 463 kts | 28° |
| 2026-05-01 13:58 | 48.54203 | 1.92864 | 38205 ft | 463 kts | 28° |
| 2026-05-01 13:59 | 48.59874 | 1.97503 | 38211 ft | 463 kts | 28° |
| 2026-05-01 13:59 | 48.65507 | 2.02119 | 38212 ft | 463 kts | 28° |
| 2026-05-01 14:00 | 48.71188 | 2.06841 | 38198 ft | 462 kts | 33° |
| 2026-05-01 14:00 | 48.73633 | 2.09861 | 38204 ft | 458 kts | 49° |
| 2026-05-01 14:00 | 48.75484 | 2.13776 | 38201 ft | 455 kts | 65° |
| 2026-05-01 14:01 | 48.77554 | 2.22769 | 38210 ft | 454 kts | 75° |
| 2026-05-01 14:01 | 48.79286 | 2.31955 | 38208 ft | 453 kts | 76° |
| 2026-05-01 14:02 | 48.80948 | 2.41178 | 38216 ft | 453 kts | 76° |
| 2026-05-01 14:02 | 48.82591 | 2.50406 | 38208 ft | 453 kts | 76° |
| 2026-05-01 14:03 | 48.84223 | 2.59625 | 38219 ft | 452 kts | 77° |
| 2026-05-01 14:03 | 48.85852 | 2.68859 | 38214 ft | 451 kts | 77° |
| 2026-05-01 14:04 | 48.87455 | 2.78011 | 38197 ft | 451 kts | 77° |
| 2026-05-01 14:04 | 48.89072 | 2.87280 | 38198 ft | 451 kts | 77° |
| 2026-05-01 14:05 | 48.90658 | 2.96423 | 38199 ft | 450 kts | 77° |
| 2026-05-01 14:05 | 48.92247 | 3.05629 | 38200 ft | 450 kts | 77° |
| 2026-05-01 14:06 | 48.93826 | 3.14825 | 38201 ft | 449 kts | 77° |
| 2026-05-01 14:06 | 48.95395 | 3.24016 | 38206 ft | 449 kts | 77° |
| 2026-05-01 14:07 | 48.96963 | 3.33241 | 38203 ft | 449 kts | 77° |
| 2026-05-01 14:08 | 48.99292 | 3.47046 | 38204 ft | 449 kts | 77° |
| 2026-05-01 14:08 | 49.00837 | 3.56264 | 38207 ft | 449 kts | 77° |
| 2026-05-01 14:09 | 49.02371 | 3.65464 | 38211 ft | 448 kts | 77° |
| 2026-05-01 14:09 | 49.03921 | 3.74616 | 38180 ft | 448 kts | 75° |
| 2026-05-01 14:10 | 49.05442 | 3.83815 | 38221 ft | 448 kts | 77° |
| 2026-05-01 14:10 | 49.06929 | 3.93044 | 38218 ft | 448 kts | 77° |
| 2026-05-01 14:11 | 49.08434 | 4.02258 | 38212 ft | 448 kts | 77° |
| 2026-05-01 14:11 | 49.10675 | 4.16081 | 38206 ft | 447 kts | 77° |
| 2026-05-01 14:12 | 49.12158 | 4.25294 | 38208 ft | 447 kts | 77° |
| 2026-05-01 14:12 | 49.13640 | 4.34515 | 38218 ft | 447 kts | 76° |
| 2026-05-01 14:13 | 49.14756 | 4.38950 | 38212 ft | 448 kts | 64° |
| 2026-05-01 14:13 | 49.15692 | 4.41752 | 38210 ft | 449 kts | 64° |
| 2026-05-01 14:13 | 49.18360 | 4.52120 | 38244 ft | 449 kts | 70° |
| 2026-05-01 14:14 | 49.20654 | 4.60983 | 38231 ft | 448 kts | 69° |
| 2026-05-01 14:14 | 49.23014 | 4.69830 | 38235 ft | 449 kts | 68° |
| 2026-05-01 14:15 | 49.25384 | 4.78659 | 38239 ft | 448 kts | 69° |
| 2026-05-01 14:15 | 49.27744 | 4.87494 | 38239 ft | 448 kts | 69° |
| 2026-05-01 14:16 | 49.30084 | 4.96279 | 38245 ft | 448 kts | 69° |
| 2026-05-01 14:16 | 49.32432 | 5.05125 | 38243 ft | 448 kts | 68° |
| 2026-05-01 14:17 | 49.34770 | 5.13971 | 38247 ft | 448 kts | 68° |
| 2026-05-01 14:17 | 49.37109 | 5.22824 | 38163 ft | 446 kts | 68° |
| 2026-05-01 14:18 | 49.38267 | 5.27214 | 37275 ft | 448 kts | 67° |
| 2026-05-01 14:18 | 49.39518 | 5.31652 | 36330 ft | 454 kts | 65° |
| 2026-05-01 14:18 | 49.40805 | 5.36076 | 35735 ft | 450 kts | 69° |
| 2026-05-01 14:18 | 49.41512 | 5.39041 | 35491 ft | 444 kts | 70° |
| 2026-05-01 14:19 | 49.42947 | 5.44927 | 34939 ft | 437 kts | 69° |
| 2026-05-01 14:19 | 49.44042 | 5.49269 | 34384 ft | 435 kts | 68° |
| 2026-05-01 14:19 | 49.45149 | 5.53591 | 33805 ft | 433 kts | 68° |
| 2026-05-01 14:19 | 49.46254 | 5.57882 | 33272 ft | 429 kts | 68° |
| 2026-05-01 14:20 | 49.47337 | 5.62069 | 32793 ft | 425 kts | 68° |
| 2026-05-01 14:20 | 49.49500 | 5.70447 | 31832 ft | 418 kts | 68° |
| 2026-05-01 14:20 | 49.50566 | 5.74589 | 31354 ft | 414 kts | 68° |
| 2026-05-01 14:21 | 49.51607 | 5.78705 | 30869 ft | 411 kts | 69° |
| 2026-05-01 14:21 | 49.52602 | 5.82812 | 30370 ft | 409 kts | 69° |
| 2026-05-01 14:21 | 49.53608 | 5.86893 | 29774 ft | 407 kts | 69° |
| 2026-05-01 14:22 | 49.55600 | 5.94951 | 28894 ft | 397 kts | 69° |
| 2026-05-01 14:22 | 49.56573 | 5.98896 | 28480 ft | 392 kts | 69° |
| 2026-05-01 14:22 | 49.57537 | 6.02809 | 28050 ft | 388 kts | 69° |
| 2026-05-01 14:22 | 49.58489 | 6.06675 | 27631 ft | 384 kts | 68° |
| 2026-05-01 14:23 | 49.59430 | 6.10513 | 27224 ft | 380 kts | 69° |
| 2026-05-01 14:23 | 49.60357 | 6.14299 | 26838 ft | 377 kts | 69° |
| 2026-05-01 14:23 | 49.61280 | 6.18074 | 26429 ft | 373 kts | 69° |
| 2026-05-01 14:23 | 49.62193 | 6.21811 | 26040 ft | 370 kts | 69° |
| 2026-05-01 14:24 | 49.63090 | 6.25489 | 25662 ft | 367 kts | 69° |
| 2026-05-01 14:24 | 49.64097 | 6.29066 | 25260 ft | 366 kts | 58° |
| 2026-05-01 14:24 | 49.65553 | 6.32286 | 24832 ft | 365 kts | 53° |
| 2026-05-01 14:24 | 49.66912 | 6.35559 | 24468 ft | 361 kts | 63° |
| 2026-05-01 14:25 | 49.68078 | 6.38974 | 24139 ft | 357 kts | 61° |
| 2026-05-01 14:25 | 49.69281 | 6.42313 | 23753 ft | 355 kts | 60° |
| 2026-05-01 14:25 | 49.70506 | 6.45622 | 23328 ft | 353 kts | 60° |
| 2026-05-01 14:25 | 49.71732 | 6.48890 | 22950 ft | 350 kts | 60° |
| 2026-05-01 14:26 | 49.72995 | 6.52084 | 22575 ft | 348 kts | 53° |
| 2026-05-01 14:26 | 49.76032 | 6.57815 | 21884 ft | 339 kts | 55° |
| 2026-05-01 14:26 | 49.77411 | 6.60745 | 21563 ft | 336 kts | 54° |
| 2026-05-01 14:27 | 49.78796 | 6.63641 | 21213 ft | 333 kts | 54° |
| 2026-05-01 14:27 | 49.80159 | 6.66464 | 20881 ft | 330 kts | 54° |
| 2026-05-01 14:27 | 49.81537 | 6.69301 | 20547 ft | 328 kts | 53° |
| 2026-05-01 14:28 | 49.84282 | 6.74915 | 19892 ft | 323 kts | 52° |
| 2026-05-01 14:28 | 49.85618 | 6.77650 | 19564 ft | 321 kts | 54° |
| 2026-05-01 14:28 | 49.86954 | 6.80410 | 19244 ft | 320 kts | 54° |
| 2026-05-01 14:28 | 49.88288 | 6.83164 | 18920 ft | 318 kts | 54° |
| 2026-05-01 14:29 | 49.89611 | 6.85896 | 18603 ft | 316 kts | 55° |
| 2026-05-01 14:29 | 49.90929 | 6.88618 | 18236 ft | 315 kts | 53° |
| 2026-05-01 14:30 | 49.94835 | 6.96667 | 17251 ft | 307 kts | 55° |
| 2026-05-01 14:30 | 49.96116 | 6.99331 | 16958 ft | 310 kts | 55° |
| 2026-05-01 14:30 | 49.97458 | 7.01991 | 16613 ft | 315 kts | 48° |
| 2026-05-01 14:31 | 50.00383 | 7.07055 | 15996 ft | 313 kts | 60° |
| 2026-05-01 14:31 | 50.01537 | 7.09917 | 15686 ft | 312 kts | 58° |
| 2026-05-01 14:31 | 50.02577 | 7.12868 | 15303 ft | 309 kts | 68° |
| 2026-05-01 14:31 | 50.03001 | 7.16050 | 15012 ft | 298 kts | 96° |
| 2026-05-01 14:32 | 50.02412 | 7.19054 | 14790 ft | 289 kts | 115° |
| 2026-05-01 14:32 | 50.01901 | 7.20956 | 14621 ft | 286 kts | 111° |
| 2026-05-01 14:32 | 50.00995 | 7.24823 | 14215 ft | 284 kts | 109° |
| 2026-05-01 14:32 | 50.00357 | 7.27726 | 13898 ft | 282 kts | 109° |
| 2026-05-01 14:33 | 49.99749 | 7.30574 | 13569 ft | 281 kts | 108° |
| 2026-05-01 14:33 | 49.99138 | 7.33486 | 13267 ft | 279 kts | 108° |
| 2026-05-01 14:33 | 49.98546 | 7.36341 | 12973 ft | 276 kts | 108° |
| 2026-05-01 14:33 | 49.97971 | 7.39138 | 12700 ft | 276 kts | 108° |
| 2026-05-01 14:34 | 49.97387 | 7.41992 | 12372 ft | 271 kts | 108° |
| 2026-05-01 14:34 | 49.96832 | 7.44700 | 12119 ft | 263 kts | 109° |
| 2026-05-01 14:34 | 49.96283 | 7.47377 | 11857 ft | 257 kts | 109° |
| 2026-05-01 14:34 | 49.95745 | 7.50008 | 11583 ft | 253 kts | 109° |
| 2026-05-01 14:35 | 49.95215 | 7.52596 | 11331 ft | 250 kts | 109° |
| 2026-05-01 14:35 | 49.94690 | 7.55167 | 11089 ft | 249 kts | 109° |
| 2026-05-01 14:35 | 49.94162 | 7.57723 | 10829 ft | 249 kts | 109° |
| 2026-05-01 14:35 | 49.93634 | 7.60285 | 10567 ft | 249 kts | 110° |
| 2026-05-01 14:36 | 49.93107 | 7.62833 | 10303 ft | 248 kts | 110° |
| 2026-05-01 14:36 | 49.92580 | 7.65384 | 10017 ft | 248 kts | 110° |
| 2026-05-01 14:36 | 49.92053 | 7.67930 | 9745 ft | 247 kts | 103° |
| 2026-05-01 14:36 | 49.91604 | 7.70497 | 9454 ft | 247 kts | 101° |
| 2026-05-01 14:37 | 49.91399 | 7.73147 | 9246 ft | 248 kts | 94° |
| 2026-05-01 14:37 | 49.91282 | 7.75816 | 8979 ft | 248 kts | 98° |
| 2026-05-01 14:37 | 49.90795 | 7.78368 | 8615 ft | 246 kts | 117° |
| 2026-05-01 14:37 | 49.90033 | 7.80674 | 8363 ft | 244 kts | 116° |
| 2026-05-01 14:38 | 49.89336 | 7.83079 | 8137 ft | 243 kts | 114° |
| 2026-05-01 14:38 | 49.88894 | 7.85586 | 7914 ft | 244 kts | 91° |
| 2026-05-01 14:38 | 49.89155 | 7.88193 | 7651 ft | 249 kts | 72° |
| 2026-05-01 14:38 | 49.89797 | 7.90703 | 7329 ft | 251 kts | 71° |
| 2026-05-01 14:39 | 49.90315 | 7.93273 | 7089 ft | 249 kts | 75° |
| 2026-05-01 14:39 | 49.90835 | 7.95824 | 6915 ft | 246 kts | 73° |
| 2026-05-01 14:39 | 49.91381 | 7.98304 | 6778 ft | 239 kts | 72° |
| 2026-05-01 14:39 | 49.91937 | 8.00714 | 6667 ft | 236 kts | 72° |
| 2026-05-01 14:40 | 49.92501 | 8.03103 | 6451 ft | 237 kts | 72° |
| 2026-05-01 14:40 | 49.93068 | 8.05494 | 6214 ft | 236 kts | 71° |
| 2026-05-01 14:40 | 49.93677 | 8.07894 | 5872 ft | 240 kts | 70° |
| 2026-05-01 14:40 | 49.94267 | 8.10311 | 5590 ft | 239 kts | 72° |
| 2026-05-01 14:41 | 49.94836 | 8.12752 | 5264 ft | 243 kts | 72° |
| 2026-05-01 14:41 | 49.95420 | 8.15224 | 4921 ft | 243 kts | 72° |
| 2026-05-01 14:41 | 49.96007 | 8.17676 | 4539 ft | 240 kts | 71° |
| 2026-05-01 14:41 | 49.96572 | 8.20030 | 4242 ft | 233 kts | 71° |
| 2026-05-01 14:42 | 49.96950 | 8.21610 | 4055 ft | 230 kts | 71° |
| 2026-05-01 14:42 | 49.97502 | 8.23888 | 3813 ft | 225 kts | 71° |
| 2026-05-01 14:42 | 49.98055 | 8.26171 | 3484 ft | 223 kts | 71° |
| 2026-05-01 14:42 | 49.98767 | 8.29126 | 3067 ft | 217 kts | 71° |
| 2026-05-01 14:43 | 49.99116 | 8.30592 | 2912 ft | 212 kts | 71° |
| 2026-05-01 14:43 | 49.99625 | 8.32731 | 2649 ft | 212 kts | 71° |
| 2026-05-01 14:43 | 50.00137 | 8.34863 | 2330 ft | 208 kts | 71° |
| 2026-05-01 14:43 | 50.00640 | 8.36946 | 2018 ft | 204 kts | 72° |
| 2026-05-01 14:44 | 50.01068 | 8.38727 | 1795 ft | 194 kts | 71° |
| 2026-05-01 14:44 | 50.01910 | 8.42238 | 1360 ft | 161 kts | 71° |
| 2026-05-01 14:44 | 50.02286 | 8.43811 | 1119 ft | 149 kts | 72° |
| 2026-05-01 14:45 | 50.02629 | 8.45239 | 955 ft | 137 kts | 71° |
| 2026-05-01 14:45 | 50.03692 | 8.47624 | 1074 ft | 132 kts | 63° |
| 2026-05-01 14:45 | 50.04075 | 8.48870 | 1656 ft | 138 kts | 66° |
| 2026-05-01 14:46 | 50.04665 | 8.50265 | 1858 ft | 167 kts | 52° |
| 2026-05-01 14:46 | 50.05653 | 8.53537 | 3526 ft | 174 kts | 82° |
| 2026-05-01 14:46 | 50.05841 | 8.55397 | 3963 ft | 173 kts | 82° |
| 2026-05-01 14:47 | 50.06359 | 8.57089 | 3932 ft | 182 kts | 42° |
| 2026-05-01 14:47 | 50.07574 | 8.57699 | 3956 ft | 193 kts | 359° |
| 2026-05-01 14:47 | 50.08950 | 8.57386 | 4150 ft | 208 kts | 351° |
| 2026-05-01 14:48 | 50.11968 | 8.56654 | 4498 ft | 226 kts | 352° |
| 2026-05-01 14:48 | 50.13576 | 8.56293 | 4681 ft | 242 kts | 351° |
| 2026-05-01 14:48 | 50.16971 | 8.55524 | 4811 ft | 251 kts | 352° |
| 2026-05-01 14:49 | 50.20442 | 8.54745 | 4947 ft | 252 kts | 352° |
| 2026-05-01 14:49 | 50.23900 | 8.53802 | 4990 ft | 252 kts | 337° |
| 2026-05-01 14:50 | 50.25871 | 8.50693 | 4982 ft | 247 kts | 286° |
| 2026-05-01 14:50 | 50.26054 | 8.44598 | 5002 ft | 244 kts | 264° |
| 2026-05-01 14:51 | 50.25990 | 8.41935 | 5041 ft | 245 kts | 263° |
| 2026-05-01 14:51 | 50.25810 | 8.36658 | 4979 ft | 244 kts | 263° |
| 2026-05-01 14:52 | 50.25633 | 8.31360 | 5023 ft | 243 kts | 263° |
| 2026-05-01 14:52 | 50.25533 | 8.28730 | 5006 ft | 243 kts | 262° |
| 2026-05-01 14:52 | 50.25323 | 8.23486 | 5018 ft | 242 kts | 262° |
| 2026-05-01 14:53 | 50.25220 | 8.20860 | 5030 ft | 242 kts | 261° |
| 2026-05-01 14:53 | 50.25003 | 8.18283 | 4974 ft | 236 kts | 245° |
| 2026-05-01 14:53 | 50.24157 | 8.16167 | 4997 ft | 229 kts | 221° |
| 2026-05-01 14:53 | 50.22927 | 8.14613 | 5014 ft | 228 kts | 214° |
| 2026-05-01 14:54 | 50.21661 | 8.13114 | 4999 ft | 228 kts | 212° |
| 2026-05-01 14:54 | 50.20373 | 8.11663 | 5022 ft | 228 kts | 211° |
| 2026-05-01 14:54 | 50.19073 | 8.10253 | 5010 ft | 228 kts | 211° |
| 2026-05-01 14:54 | 50.17774 | 8.08867 | 5014 ft | 226 kts | 210° |
| 2026-05-01 14:55 | 50.16492 | 8.07513 | 4993 ft | 226 kts | 210° |
| 2026-05-01 14:55 | 50.15183 | 8.06144 | 4994 ft | 227 kts | 209° |
| 2026-05-01 14:55 | 50.13877 | 8.04791 | 5020 ft | 226 kts | 210° |
| 2026-05-01 14:55 | 50.12536 | 8.03448 | 5006 ft | 227 kts | 209° |
| 2026-05-01 14:56 | 50.11219 | 8.02079 | 5008 ft | 227 kts | 209° |
| 2026-05-01 14:56 | 50.09901 | 8.00715 | 4993 ft | 227 kts | 209° |
| 2026-05-01 14:56 | 50.08598 | 7.99374 | 5034 ft | 227 kts | 208° |
| 2026-05-01 14:56 | 50.07261 | 7.98006 | 5028 ft | 228 kts | 209° |
| 2026-05-01 14:57 | 50.05951 | 7.96671 | 4985 ft | 228 kts | 207° |
| 2026-05-01 14:57 | 50.02981 | 7.95443 | 5002 ft | 223 kts | 187° |
| 2026-05-01 14:57 | 50.01454 | 7.95004 | 5002 ft | 223 kts | 187° |
| 2026-05-01 14:58 | 49.99923 | 7.94583 | 5049 ft | 224 kts | 187° |
| 2026-05-01 14:58 | 49.98372 | 7.94172 | 5010 ft | 223 kts | 185° |
| 2026-05-01 14:58 | 49.96914 | 7.94307 | 5009 ft | 206 kts | 161° |
| 2026-05-01 14:58 | 49.95709 | 7.95347 | 5020 ft | 194 kts | 137° |
| 2026-05-01 14:59 | 49.94908 | 7.96967 | 4963 ft | 189 kts | 117° |
| 2026-05-01 14:59 | 49.94494 | 7.98902 | 4917 ft | 188 kts | 107° |
| 2026-05-01 14:59 | 49.94179 | 8.00880 | 4985 ft | 189 kts | 105° |
| 2026-05-01 14:59 | 49.93890 | 8.02882 | 5112 ft | 191 kts | 104° |
| 2026-05-01 15:00 | 49.93649 | 8.06970 | 4998 ft | 195 kts | 79° |
| 2026-05-01 15:00 | 49.94046 | 8.08986 | 4975 ft | 196 kts | 76° |
| 2026-05-01 15:00 | 49.94469 | 8.11004 | 4999 ft | 198 kts | 75° |
| 2026-05-01 15:01 | 49.94919 | 8.13025 | 5003 ft | 197 kts | 74° |
| 2026-05-01 15:01 | 49.95380 | 8.15035 | 4876 ft | 200 kts | 74° |
| 2026-05-01 15:01 | 49.95863 | 8.17086 | 4583 ft | 202 kts | 72° |
| 2026-05-01 15:01 | 49.96355 | 8.19119 | 4330 ft | 199 kts | 72° |
| 2026-05-01 15:02 | 49.96828 | 8.21096 | 4131 ft | 193 kts | 72° |
| 2026-05-01 15:02 | 49.97139 | 8.22384 | 3980 ft | 192 kts | 71° |
| 2026-05-01 15:02 | 49.97764 | 8.24982 | 3589 ft | 190 kts | 72° |
| 2026-05-01 15:02 | 49.98227 | 8.26886 | 3374 ft | 188 kts | 71° |
| 2026-05-01 15:03 | 49.98674 | 8.28749 | 3105 ft | 183 kts | 72° |
| 2026-05-01 15:03 | 49.99115 | 8.30598 | 2856 ft | 182 kts | 72° |
| 2026-05-01 15:03 | 49.99549 | 8.32425 | 2652 ft | 179 kts | 72° |
| 2026-05-01 15:03 | 49.99965 | 8.34159 | 2456 ft | 158 kts | 72° |
| 2026-05-01 15:04 | 50.00325 | 8.35678 | 2246 ft | 146 kts | 70° |
| 2026-05-01 15:04 | 50.00669 | 8.37111 | 2068 ft | 138 kts | 72° |
| 2026-05-01 15:04 | 50.01022 | 8.38505 | 1867 ft | 138 kts | 68° |
| 2026-05-01 15:04 | 50.01354 | 8.39888 | 1654 ft | 137 kts | 73° |
| 2026-05-01 15:05 | 50.01677 | 8.41276 | 1486 ft | 136 kts | 72° |
| 2026-05-01 15:05 | 50.01997 | 8.42634 | 1307 ft | 133 kts | 71° |
| 2026-05-01 15:05 | 50.02325 | 8.43988 | 1098 ft | 134 kts | 70° |
| 2026-05-01 15:05 | 50.02685 | 8.45318 | 948 ft | 132 kts | 62° |
| 2026-05-01 15:06 | 50.03014 | 8.46638 | 780 ft | 140 kts | 73° |
| 2026-05-01 15:06 | 50.03323 | 8.48154 | 675 ft | 156 kts | 68° |
| 2026-05-01 15:06 | 50.03696 | 8.49680 | 417 ft | 145 kts | 66° |
| 2026-05-01 15:06 | 50.04021 | 8.51012 | 330 ft | 111 kts | 71° |
| 2026-05-01 15:07 | 50.04198 | 8.51765 | 334 ft | 40 kts | 71° |
| 2026-05-01 15:07 | 50.04242 | 8.52105 | 346 ft | 18 kts | 93° |
| 2026-05-01 15:07 | 50.04238 | 8.52160 | 345 ft | 2 kts | 98° |
| 2026-05-01 15:07 | 50.04235 | 8.52196 | 348 ft | 5 kts | 98° |
| 2026-05-01 15:08 | 50.04229 | 8.52262 | 344 ft | 7 kts | 98° |
| 2026-05-01 15:08 | 50.04223 | 8.52320 | 354 ft | 0 kts | 102° |
| 2026-05-01 15:08 | 50.04222 | 8.52321 | 354 ft | 0 kts | 102° |
| 2026-05-01 15:09 | 50.04215 | 8.52373 | 348 ft | 9 kts | 103° |
| 2026-05-01 15:10 | 50.04203 | 8.52462 | 349 ft | 7 kts | 99° |
| 2026-05-01 15:10 | 50.04195 | 8.52623 | 353 ft | 7 kts | 84° |
| 2026-05-01 15:10 | 50.04197 | 8.52649 | 354 ft | 5 kts | 83° |
| 2026-05-01 15:11 | 50.04208 | 8.52712 | 352 ft | 6 kts | 69° |
| 2026-05-01 15:11 | 50.04244 | 8.52860 | 361 ft | 9 kts | 69° |
| 2026-05-01 15:11 | 50.04268 | 8.52956 | 356 ft | 10 kts | 69° |
| 2026-05-01 15:12 | 50.04294 | 8.53067 | 359 ft | 12 kts | 69° |
| 2026-05-01 15:12 | 50.04343 | 8.53269 | 369 ft | 12 kts | 70° |
| 2026-05-01 15:12 | 50.04377 | 8.53414 | 374 ft | 16 kts | 69° |
| 2026-05-01 15:13 | 50.04429 | 8.53999 | 378 ft | 25 kts | 84° |
| 2026-05-01 15:14 | 50.04450 | 8.54493 | 371 ft | 27 kts | 101° |
| 2026-05-01 15:14 | 50.04372 | 8.54712 | 363 ft | 24 kts | 136° |
| 2026-05-01 15:14 | 50.04062 | 8.54916 | 359 ft | 13 kts | 160° |
| 2026-05-01 15:15 | 50.04038 | 8.55098 | 360 ft | 14 kts | 68° |
| 2026-05-01 15:15 | 50.04144 | 8.55548 | 361 ft | 30 kts | 72° |
| 2026-05-01 15:16 | 50.04259 | 8.56022 | 362 ft | 25 kts | 70° |
| 2026-05-01 15:16 | 50.04385 | 8.56553 | 365 ft | 25 kts | 70° |
| 2026-05-01 15:17 | 50.04501 | 8.57024 | 365 ft | 27 kts | 70° |
| 2026-05-01 15:18 | 50.04668 | 8.57736 | 361 ft | 23 kts | 70° |
| 2026-05-01 15:18 | 50.04742 | 8.57936 | 364 ft | 19 kts | 42° |
| 2026-05-01 15:19 | 50.04927 | 8.58571 | 363 ft | 20 kts | 70° |
| 2026-05-01 15:19 | 50.04961 | 8.58743 | 365 ft | 7 kts | 100° |
| 2026-05-01 15:19 | 50.04923 | 8.58784 | 363 ft | 6 kts | 162° |
| 2026-05-01 15:20 | 50.04900 | 8.58796 | 368 ft | 0 kts | 160° |